KSAA/SAA METAR and TAF weather

Enter ICAO airport designator
Station Type Date Time Source
KSAA METAR 2019/08/24 08:55 UTC NOAA

KSAA 240855Z AUTO 27004KT 10SM SCT120 09/00 A3014 RMK AO2


Station Type Date Time Source
KSAA Decoded METAR 2019/08/24 08:55 UTC NOAA

Station name not available
Aug 24, 2019 - 04:55 AM EDT / 2019.08.24 0855 UTC
Wind: from the W (270 degrees) at 5 MPH (4 KT):0
Visibility: 10 mile(s):0
Sky conditions: partly cloudy
Temperature: 48 F (9 C)
Dew Point: 32 F (0 C)
Relative Humidity: 53%
Pressure (altimeter): 30.14 in. Hg (1020 hPa)
ob: KSAA 240855Z AUTO 27004KT 10SM SCT120 09/00 A3014 RMK AO2
cycle: 9

Station Type Date Time Source
KSAA TAF UTC NOAA

Error!

Example: see airport list